createdAt,value
2018-03-14T00:02:22.262Z,98065.28
2018-03-14T00:04:49.846Z,98060.72
2018-03-14T00:07:17.606Z,98069.91
2018-03-14T00:09:45.405Z,98076.02
2018-03-14T00:12:13.037Z,98073.27
2018-03-14T00:14:40.625Z,98071.20
2018-03-14T00:17:08.198Z,98072.14
2018-03-14T00:19:35.798Z,98063.73
2018-03-14T00:22:03.587Z,98069.56
2018-03-14T00:24:31.192Z,98063.97
2018-03-14T00:26:58.767Z,98065.56
2018-03-14T00:29:26.361Z,98063.66
2018-03-14T00:31:54.186Z,98064.13
2018-03-14T00:34:21.944Z,98056.53
2018-03-14T00:36:49.527Z,98055.41
2018-03-14T00:39:17.110Z,98048.08
2018-03-14T00:41:44.961Z,98051.95
2018-03-14T00:44:12.777Z,98044.58
2018-03-14T00:46:40.369Z,98052.98
2018-03-14T00:49:07.966Z,98052.33
2018-03-14T00:51:35.623Z,98050.66
2018-03-14T00:54:03.214Z,98053.34
2018-03-14T00:56:31.041Z,98051.33
2018-03-14T00:58:58.658Z,98049.63
2018-03-14T01:01:26.272Z,98054.44
2018-03-14T01:03:53.908Z,98053.64
2018-03-14T01:06:21.510Z,98053.31
2018-03-14T01:08:49.108Z,98052.58
2018-03-14T01:11:16.875Z,98052.69
2018-03-14T01:13:44.468Z,98049.25
2018-03-14T01:16:12.063Z,98039.08
2018-03-14T01:18:39.931Z,98036.56
2018-03-14T01:21:07.640Z,98037.16
2018-03-14T01:23:35.229Z,98036.23
2018-03-14T01:26:02.825Z,98031.67
2018-03-14T01:28:30.580Z,98034.69
2018-03-14T01:30:58.171Z,98024.94
2018-03-14T01:33:25.774Z,98023.03
2018-03-14T01:35:53.633Z,98019.71
2018-03-14T01:38:21.218Z,98016.23
2018-03-14T01:40:48.993Z,98021.19
2018-03-14T01:43:16.590Z,98022.73
2018-03-14T01:45:44.179Z,98029.81
2018-03-14T01:48:11.779Z,98032.00
2018-03-14T01:50:39.564Z,98020.35
2018-03-14T01:53:19.229Z,98019.74
2018-03-14T01:55:46.813Z,98016.94
2018-03-14T01:58:14.451Z,98012.12
2018-03-14T02:00:42.043Z,98019.74
2018-03-14T02:03:09.619Z,98018.59
2018-03-14T02:05:37.210Z,98022.74
2018-03-14T02:08:05.039Z,98025.88
2018-03-14T02:10:32.744Z,98020.61
2018-03-14T02:13:00.316Z,98019.50
2018-03-14T02:15:27.950Z,98021.27
2018-03-14T02:17:55.546Z,98016.78
2018-03-14T02:20:23.323Z,98017.48
2018-03-14T02:22:51.140Z,98016.66
2018-03-14T02:25:18.718Z,98018.56
2018-03-14T02:27:46.476Z,98015.97
2018-03-14T02:30:14.195Z,98019.34
2018-03-14T02:32:41.804Z,98021.70
2018-03-14T02:35:09.533Z,98029.47
2018-03-14T02:37:37.142Z,98030.48
2018-03-14T02:40:04.746Z,98028.17
2018-03-14T02:42:32.586Z,98021.25
2018-03-14T02:45:00.155Z,98028.77
2018-03-14T02:47:27.701Z,98032.32
2018-03-14T02:49:55.421Z,98031.72
2018-03-14T02:52:23.008Z,98038.33
2018-03-14T02:54:50.775Z,98038.88
2018-03-14T02:57:18.494Z,98039.53
2018-03-14T02:59:46.313Z,98042.07
2018-03-14T03:02:13.871Z,98040.64
2018-03-14T03:04:41.430Z,98041.47
2018-03-14T03:07:08.986Z,98048.54
2018-03-14T03:09:36.695Z,98045.56
2018-03-14T03:12:04.259Z,98042.08
2018-03-14T03:14:31.806Z,98042.00
2018-03-14T03:16:59.532Z,98045.66
2018-03-14T03:19:27.256Z,98050.22
2018-03-14T03:21:54.806Z,98046.19
2018-03-14T03:24:22.362Z,98052.05
2018-03-14T03:26:49.910Z,98045.23
2018-03-14T03:29:17.730Z,98047.48
2018-03-14T03:31:45.278Z,98046.75
2018-03-14T03:34:13.063Z,98048.45
2018-03-14T03:36:40.622Z,98048.94
2018-03-14T03:39:08.350Z,98055.30
2018-03-14T03:41:35.907Z,98054.20
2018-03-14T03:44:03.635Z,98054.17
2018-03-14T03:46:31.204Z,98059.36
2018-03-14T03:48:58.760Z,98053.92
2018-03-14T03:51:26.589Z,98054.42
2018-03-14T03:53:54.139Z,98052.44
2018-03-14T03:56:21.929Z,98050.89
2018-03-14T03:58:49.743Z,98056.25
2018-03-14T04:01:17.297Z,98055.67
2018-03-14T04:03:44.867Z,98056.84
2018-03-14T04:06:12.597Z,98061.52
2018-03-14T04:08:40.162Z,98063.20
2018-03-14T04:11:07.724Z,98064.36
2018-03-14T04:13:35.552Z,98069.98
2018-03-14T04:16:03.146Z,98065.55
2018-03-14T04:18:30.707Z,98074.48
2018-03-14T04:20:58.506Z,98074.45
2018-03-14T04:23:26.062Z,98080.06
2018-03-14T04:25:53.841Z,98084.52
2018-03-14T04:28:21.560Z,98083.62
2018-03-14T04:30:49.186Z,98080.84
2018-03-14T04:33:16.753Z,98096.86
2018-03-14T04:35:44.615Z,98091.90
2018-03-14T04:38:12.171Z,98090.66
2018-03-14T04:40:39.726Z,98095.77
2018-03-14T04:43:07.322Z,98097.52
2018-03-14T04:45:34.935Z,98100.09
2018-03-14T04:48:02.550Z,98106.98
2018-03-14T04:50:30.104Z,98105.71
2018-03-14T04:52:57.939Z,98114.20
2018-03-14T04:55:25.504Z,98110.37
2018-03-14T04:57:53.276Z,98120.32
2018-03-14T05:00:21.094Z,98118.73
2018-03-14T05:02:48.703Z,98123.04
2018-03-14T05:05:16.265Z,98117.84
2018-03-14T05:07:43.820Z,98121.13
2018-03-14T05:10:11.426Z,98125.70
2018-03-14T05:12:39.149Z,98128.55
2018-03-14T05:15:06.699Z,98125.47
2018-03-14T05:17:34.275Z,98127.80
2018-03-14T05:20:01.830Z,98130.97
2018-03-14T05:22:29.394Z,98135.78
2018-03-14T05:24:57.172Z,98135.02
2018-03-14T05:27:24.990Z,98131.59
2018-03-14T05:29:52.543Z,98134.64
2018-03-14T05:32:20.162Z,98131.42
2018-03-14T05:34:47.714Z,98137.75
2018-03-14T05:37:15.270Z,98135.36
2018-03-14T05:39:42.842Z,98131.51
2018-03-14T05:42:10.414Z,98137.38
2018-03-14T05:44:38.188Z,98139.19
2018-03-14T05:47:05.742Z,98141.09
2018-03-14T05:49:33.557Z,98139.87
2018-03-14T05:52:01.110Z,98139.56
2018-03-14T05:54:28.889Z,98139.80
2018-03-14T05:56:56.437Z,98140.50
2018-03-14T05:59:23.996Z,98136.41
2018-03-14T06:01:51.704Z,98138.77
2018-03-14T06:04:19.254Z,98141.30
2018-03-14T06:06:46.813Z,98146.81
2018-03-14T06:09:14.381Z,98151.03
2018-03-14T06:11:42.071Z,98158.86
2018-03-14T06:14:09.793Z,98153.03
2018-03-14T06:16:37.434Z,98154.27
2018-03-14T06:19:04.994Z,98154.80
2018-03-14T06:21:32.583Z,98152.61
2018-03-14T06:24:00.153Z,98166.94
2018-03-14T06:26:27.706Z,98161.56
2018-03-14T06:28:55.438Z,98155.42
2018-03-14T06:31:22.998Z,98172.05
2018-03-14T06:33:50.642Z,98166.17
2018-03-14T06:36:18.193Z,98162.88
2018-03-14T06:38:45.794Z,98171.69
2018-03-14T06:41:13.347Z,98170.78
2018-03-14T06:43:40.960Z,98171.90
2018-03-14T06:46:08.532Z,98182.06
2018-03-14T06:48:36.086Z,98182.77
2018-03-14T06:51:03.691Z,98179.80
2018-03-14T06:53:31.382Z,98178.73
2018-03-14T06:55:58.942Z,98178.72
2018-03-14T06:58:38.203Z,98181.58
2018-03-14T07:01:17.554Z,98186.68
2018-03-14T07:06:50.913Z,98188.58
2018-03-14T07:09:18.633Z,98185.42
2018-03-14T07:11:46.458Z,98188.34
2018-03-14T07:14:14.018Z,98184.69
2018-03-14T07:16:41.594Z,98186.44
2018-03-14T07:19:09.413Z,98188.51
2018-03-14T07:21:37.122Z,98190.08
2018-03-14T07:24:04.731Z,98186.33
2018-03-14T07:26:32.348Z,98191.07
2018-03-14T07:28:59.918Z,98196.05
2018-03-14T07:31:27.475Z,98197.30
2018-03-14T07:33:55.038Z,98198.91
2018-03-14T07:36:22.842Z,98201.58
2018-03-14T07:38:50.657Z,98189.23
2018-03-14T07:41:18.475Z,98207.52
2018-03-14T07:43:46.134Z,98206.47
2018-03-14T07:46:13.912Z,98195.66
2018-03-14T07:48:41.481Z,98198.09
2018-03-14T07:51:09.055Z,98201.90
2018-03-14T07:53:36.656Z,98194.45
2018-03-14T07:56:04.258Z,98190.64
2018-03-14T07:58:31.828Z,98199.27
2018-03-14T08:00:59.536Z,98197.64
2018-03-14T08:03:27.093Z,98205.78
2018-03-14T08:05:54.767Z,98207.81
2018-03-14T08:08:22.577Z,98209.22
2018-03-14T08:10:50.130Z,98213.89
2018-03-14T08:13:17.910Z,98207.93
2018-03-14T08:15:45.592Z,98207.98
2018-03-14T08:18:13.174Z,98212.23
2018-03-14T08:20:40.729Z,98208.58
2018-03-14T08:23:08.476Z,98213.20
2018-03-14T08:25:36.199Z,98200.38
2018-03-14T08:28:03.831Z,98198.77
2018-03-14T08:30:31.638Z,98207.33
2018-03-14T08:32:59.356Z,98204.57
2018-03-14T08:35:26.936Z,98204.47
2018-03-14T08:37:54.572Z,98214.98
2018-03-14T08:40:22.285Z,98213.00
2018-03-14T08:42:49.875Z,98199.05
2018-03-14T08:45:17.750Z,98198.91
2018-03-14T08:47:45.314Z,98197.03
2018-03-14T08:50:13.081Z,98200.68
2018-03-14T08:52:40.661Z,98207.30
2018-03-14T08:55:08.226Z,98206.58
2018-03-14T08:57:35.934Z,98212.09
2018-03-14T09:00:03.569Z,98199.39
2018-03-14T09:02:31.149Z,98202.04
2018-03-14T09:04:58.718Z,98207.89
2018-03-14T09:07:26.358Z,98203.32
2018-03-14T09:09:54.123Z,98203.08
2018-03-14T09:12:21.854Z,98203.96
2018-03-14T09:14:49.414Z,98206.75
2018-03-14T09:17:16.970Z,98206.48
2018-03-14T09:19:44.797Z,98203.86
2018-03-14T09:22:12.367Z,98204.75
2018-03-14T09:24:40.076Z,98185.75
2018-03-14T09:27:07.852Z,98205.61
2018-03-14T09:29:35.697Z,98205.44
2018-03-14T09:32:03.270Z,98205.98
2018-03-14T09:34:31.001Z,98190.00
2018-03-14T09:36:58.825Z,98192.98
2018-03-14T09:39:26.382Z,98199.09
2018-03-14T09:41:53.946Z,98195.09
2018-03-14T09:44:21.569Z,98193.19
2018-03-14T09:46:49.261Z,98184.42
2018-03-14T09:49:16.834Z,98188.54
2018-03-14T09:51:44.389Z,98190.61
2018-03-14T09:54:12.079Z,98194.22
2018-03-14T09:56:39.621Z,98195.83
2018-03-14T09:59:07.194Z,98198.66
2018-03-14T10:01:34.753Z,98187.57
2018-03-14T10:04:02.314Z,98195.44
2018-03-14T10:06:29.889Z,98199.33
2018-03-14T10:08:57.510Z,98202.01
2018-03-14T10:11:25.068Z,98199.88
2018-03-14T10:13:52.683Z,98195.75
2018-03-14T10:16:20.266Z,98199.01
2018-03-14T10:18:47.929Z,98191.44
2018-03-14T10:21:15.509Z,98186.08
2018-03-14T10:23:43.071Z,98173.25
2018-03-14T10:26:10.647Z,98179.87
2018-03-14T10:28:38.215Z,98171.02
2018-03-14T10:31:05.774Z,98178.05
2018-03-14T10:33:33.338Z,98173.06
2018-03-14T10:36:00.890Z,98176.62
2018-03-14T10:38:28.669Z,98169.95
2018-03-14T10:40:56.488Z,98180.57
2018-03-14T10:43:24.053Z,98186.20
2018-03-14T10:45:51.675Z,98184.02
2018-03-14T10:48:19.442Z,98185.27
2018-03-14T10:50:47.006Z,98181.03
2018-03-14T10:53:14.782Z,98182.50
2018-03-14T10:55:42.367Z,98173.44
2018-03-14T10:58:10.215Z,98159.22
2018-03-14T11:00:43.274Z,98151.77
2018-03-14T11:03:16.407Z,98160.06
2018-03-14T11:05:44.030Z,98153.95
2018-03-14T11:08:11.610Z,98159.58
2018-03-14T11:10:39.170Z,98163.45
2018-03-14T11:13:06.737Z,98165.44
2018-03-14T11:15:34.486Z,98167.67
2018-03-14T11:18:02.215Z,98161.94
2018-03-14T11:20:29.770Z,98159.67
2018-03-14T11:22:57.341Z,98167.45
2018-03-14T11:25:24.895Z,98161.08
2018-03-14T11:27:52.768Z,98155.90
2018-03-14T11:30:20.346Z,98145.11
2018-03-14T11:32:47.914Z,98142.41
2018-03-14T11:35:15.485Z,98140.70
2018-03-14T11:37:43.207Z,98124.91
2018-03-14T11:40:10.924Z,98130.47
2018-03-14T11:42:38.706Z,98140.97
2018-03-14T11:45:06.270Z,98140.80
2018-03-14T11:47:33.903Z,98143.30
2018-03-14T11:50:01.542Z,98146.75
2018-03-14T11:52:29.100Z,98138.53
2018-03-14T11:54:56.867Z,98142.55
2018-03-14T11:57:24.685Z,98135.48
2018-03-14T11:59:52.250Z,98137.83
2018-03-14T12:02:19.814Z,98133.09
2018-03-14T12:04:47.375Z,98137.94
2018-03-14T12:07:15.158Z,98136.37
2018-03-14T12:09:42.760Z,98123.54
2018-03-14T12:12:10.370Z,98131.33
2018-03-14T12:14:37.991Z,98135.95
2018-03-14T12:17:05.829Z,98127.83
2018-03-14T12:19:33.652Z,98126.77
2018-03-14T12:22:01.468Z,98131.34
2018-03-14T12:24:29.035Z,98127.73
2018-03-14T12:26:56.804Z,98142.05
2018-03-14T12:29:24.413Z,98127.91
2018-03-14T12:31:52.099Z,98135.56
2018-03-14T12:34:19.961Z,98129.00
2018-03-14T12:36:47.676Z,98130.78
2018-03-14T12:39:15.476Z,98133.27
2018-03-14T12:41:43.213Z,98132.24
2018-03-14T12:44:11.033Z,98133.80
2018-03-14T12:46:38.851Z,98126.80
2018-03-14T12:49:06.418Z,98134.02
2018-03-14T12:51:34.037Z,98130.65
2018-03-14T12:54:01.631Z,98123.52
2018-03-14T12:56:29.198Z,98128.00
2018-03-14T12:58:56.771Z,98121.58
2018-03-14T13:01:24.358Z,98116.86
2018-03-14T13:03:51.954Z,98124.77
2018-03-14T13:06:19.584Z,98127.10
2018-03-14T13:08:47.303Z,98120.34
2018-03-14T13:11:14.867Z,98108.61
2018-03-14T13:13:42.442Z,98117.27
2018-03-14T13:16:10.018Z,98108.20
2018-03-14T13:18:37.586Z,98118.34
2018-03-14T13:21:05.402Z,98123.11
2018-03-14T13:23:33.010Z,98116.97
2018-03-14T13:26:00.585Z,98125.44
2018-03-14T13:28:28.146Z,98119.01
2018-03-14T13:30:55.873Z,98114.44
2018-03-14T13:33:23.494Z,98118.59
2018-03-14T13:35:51.309Z,98117.08
2018-03-14T13:38:19.027Z,98108.17
2018-03-14T13:40:46.596Z,98114.75
2018-03-14T13:43:14.146Z,98110.69
2018-03-14T13:45:41.728Z,98115.92
2018-03-14T13:48:09.284Z,98104.70
2018-03-14T13:50:36.863Z,98114.14
2018-03-14T13:53:04.637Z,98112.17
2018-03-14T13:55:32.264Z,98114.91
2018-03-14T13:57:59.838Z,98119.41
2018-03-14T14:00:27.394Z,98114.33
2018-03-14T14:02:54.967Z,98120.92
2018-03-14T14:05:22.554Z,98112.09
2018-03-14T14:07:50.138Z,98120.16
2018-03-14T14:10:17.716Z,98112.00
2018-03-14T14:12:45.458Z,98114.53
2018-03-14T14:15:13.018Z,98110.89
2018-03-14T14:17:40.654Z,98103.95
2018-03-14T14:20:08.439Z,98107.54
2018-03-14T14:22:36.252Z,98108.63
2018-03-14T14:25:04.201Z,98104.17
2018-03-14T14:27:31.766Z,98110.12
2018-03-14T14:29:59.402Z,98106.84
2018-03-14T14:32:27.223Z,98095.27
2018-03-14T14:34:55.041Z,98111.81
2018-03-14T14:37:22.631Z,98111.89
2018-03-14T14:39:50.202Z,98108.66
2018-03-14T14:42:17.792Z,98108.88
2018-03-14T14:44:45.366Z,98104.58
2018-03-14T14:47:13.135Z,98120.42
2018-03-14T14:49:40.758Z,98120.64
2018-03-14T14:52:08.320Z,98110.32
2018-03-14T14:54:35.890Z,98123.14
2018-03-14T14:57:03.466Z,98115.32
2018-03-14T14:59:31.031Z,98116.54
2018-03-14T15:01:58.618Z,98124.36
2018-03-14T15:04:26.178Z,98126.64
2018-03-14T15:06:53.761Z,98122.94
2018-03-14T15:09:21.493Z,98131.31
2018-03-14T15:11:49.316Z,98131.89
2018-03-14T15:14:16.862Z,98109.16
2018-03-14T15:16:44.721Z,98131.38
2018-03-14T15:19:12.290Z,98139.76
2018-03-14T15:21:39.875Z,98130.11
2018-03-14T15:24:07.446Z,98129.23
2018-03-14T15:26:35.110Z,98132.11
2018-03-14T15:29:02.716Z,98136.60
2018-03-14T15:31:30.291Z,98138.20
2018-03-14T15:33:57.855Z,98134.06
2018-03-14T15:36:25.446Z,98143.93
2018-03-14T15:38:53.099Z,98148.97
2018-03-14T15:41:20.933Z,98147.94
2018-03-14T15:43:48.506Z,98149.37
2018-03-14T15:46:16.363Z,98149.80
2018-03-14T15:48:43.984Z,98154.81
2018-03-14T15:51:11.552Z,98157.54
2018-03-14T15:53:39.319Z,98159.41
2018-03-14T15:56:06.910Z,98160.50
2018-03-14T15:58:34.470Z,98160.98
2018-03-14T16:01:02.047Z,98164.41
2018-03-14T16:03:29.610Z,98163.66
2018-03-14T16:05:57.231Z,98167.12
2018-03-14T16:08:24.814Z,98164.39
2018-03-14T16:10:52.366Z,98173.13
2018-03-14T16:13:20.064Z,98170.89
2018-03-14T16:15:47.640Z,98171.19
2018-03-14T16:18:15.230Z,98172.50
2018-03-14T16:20:43.017Z,98173.75
2018-03-14T16:23:10.618Z,98174.50
2018-03-14T16:25:38.241Z,98174.66
2018-03-14T16:28:05.873Z,98173.55
2018-03-14T16:30:33.687Z,98177.97
2018-03-14T16:33:01.247Z,98179.89
2018-03-14T16:35:29.007Z,98180.75
2018-03-14T16:37:56.575Z,98186.16
2018-03-14T16:40:24.172Z,98182.69
2018-03-14T16:42:51.867Z,98190.94
2018-03-14T16:45:19.694Z,98196.00
2018-03-14T16:47:47.304Z,98191.89
2018-03-14T16:50:14.889Z,98194.34
2018-03-14T16:52:42.651Z,98192.56
2018-03-14T16:55:10.283Z,98203.02
2018-03-14T16:57:37.847Z,98207.50
2018-03-14T17:00:05.510Z,98195.42
2018-03-14T17:02:33.107Z,98207.36
2018-03-14T17:05:00.677Z,98205.58
2018-03-14T17:07:28.259Z,98204.29
2018-03-14T17:09:55.863Z,98211.61
2018-03-14T17:12:23.592Z,98213.70
2018-03-14T17:14:51.182Z,98215.41
2018-03-14T17:17:18.880Z,98217.45
2018-03-14T17:19:46.532Z,98213.68
2018-03-14T17:22:14.161Z,98214.23
2018-03-14T17:24:42.017Z,98221.12
2018-03-14T17:27:09.624Z,98228.11
2018-03-14T17:29:37.313Z,98224.12
2018-03-14T17:32:04.961Z,98226.63
2018-03-14T17:34:32.540Z,98232.05
2018-03-14T17:37:00.115Z,98234.34
2018-03-14T17:39:27.787Z,98230.34
2018-03-14T17:41:55.361Z,98233.09
2018-03-14T17:44:23.163Z,98236.65
2018-03-14T17:46:50.949Z,98234.36
2018-03-14T17:49:18.766Z,98242.37
2018-03-14T17:51:46.400Z,98246.17
2018-03-14T17:54:14.200Z,98238.46
2018-03-14T17:56:42.011Z,98238.84
2018-03-14T17:59:09.661Z,98237.28
2018-03-14T18:01:37.447Z,98239.63
2018-03-14T18:04:05.253Z,98241.97
2018-03-14T18:06:32.890Z,98241.34
2018-03-14T18:09:00.710Z,98245.72
2018-03-14T18:11:28.433Z,98240.77
2018-03-14T18:13:56.062Z,98249.98
2018-03-14T18:16:23.858Z,98253.29
2018-03-14T18:18:51.455Z,98248.75
2018-03-14T18:21:19.060Z,98255.31
2018-03-14T18:23:46.919Z,98248.36
2018-03-14T18:26:14.739Z,98253.56
2018-03-14T18:28:42.559Z,98246.65
2018-03-14T18:31:10.368Z,98257.73
2018-03-14T18:33:37.986Z,98256.61
2018-03-14T18:36:05.712Z,98256.70
2018-03-14T18:38:33.633Z,98252.80
2018-03-14T18:41:01.457Z,98257.22
2018-03-14T18:43:29.269Z,98257.33
2018-03-14T18:45:57.002Z,98258.38
2018-03-14T18:48:24.806Z,98262.45
2018-03-14T18:50:52.625Z,98268.38
2018-03-14T18:53:21.140Z,98264.98
2018-03-14T18:55:48.727Z,98268.59
2018-03-14T18:58:16.376Z,98263.14
2018-03-14T19:00:44.199Z,98268.20
2018-03-14T19:03:12.017Z,98271.69
2018-03-14T19:05:39.828Z,98266.73
2018-03-14T19:08:07.443Z,98260.14
2018-03-14T19:10:35.140Z,98267.05
2018-03-14T19:13:02.891Z,98268.77
2018-03-14T19:15:30.709Z,98274.31
2018-03-14T19:17:58.419Z,98276.50
2018-03-14T19:20:26.006Z,98279.16
2018-03-14T19:22:53.594Z,98276.66
2018-03-14T19:25:21.192Z,98275.91
2018-03-14T19:27:48.892Z,98276.30
2018-03-14T19:30:16.608Z,98280.55
2018-03-14T19:32:44.220Z,98280.87
2018-03-14T19:35:11.810Z,98280.21
2018-03-14T19:37:39.382Z,98287.97
2018-03-14T19:40:07.192Z,98287.61
2018-03-14T19:42:34.803Z,98292.05
2018-03-14T19:45:02.724Z,98284.88
2018-03-14T19:47:30.303Z,98289.45
2018-03-14T19:49:57.942Z,98293.91
2018-03-14T19:52:25.568Z,98292.95
2018-03-14T19:54:53.400Z,98299.59
2018-03-14T19:57:21.008Z,98300.69
2018-03-14T19:59:48.613Z,98300.45
2018-03-14T20:02:16.338Z,98304.67
2018-03-14T20:04:44.071Z,98301.01
2018-03-14T20:07:11.659Z,98297.44
2018-03-14T20:09:39.396Z,98301.15
2018-03-14T20:12:06.982Z,98296.80
2018-03-14T20:14:34.592Z,98303.53
2018-03-14T20:17:02.474Z,98302.77
2018-03-14T20:19:30.165Z,98306.83
2018-03-14T20:21:57.789Z,98302.66
2018-03-14T20:24:25.647Z,98304.86
2018-03-14T20:26:53.228Z,98309.91
2018-03-14T20:29:20.943Z,98310.80
2018-03-14T20:31:48.503Z,98311.89
2018-03-14T20:34:16.289Z,98314.34
2018-03-14T20:36:43.900Z,98315.13
2018-03-14T20:39:11.647Z,98310.63
2018-03-14T20:41:39.443Z,98317.24
2018-03-14T20:44:07.145Z,98312.80
2018-03-14T20:46:34.731Z,98312.25
2018-03-14T20:49:02.391Z,98321.89
2018-03-14T20:51:29.966Z,98317.67
2018-03-14T20:53:57.736Z,98322.25
2018-03-14T20:56:25.320Z,98323.70
2018-03-14T20:58:52.936Z,98325.08
2018-03-14T21:01:20.502Z,98328.61
2018-03-14T21:03:48.309Z,98333.88
2018-03-14T21:06:15.866Z,98333.89
2018-03-14T21:08:43.642Z,98338.08
2018-03-14T21:11:11.459Z,98341.98
2018-03-14T21:13:39.077Z,98340.92
2018-03-14T21:16:06.690Z,98342.97
2018-03-14T21:18:34.246Z,98344.42
2018-03-14T21:21:01.921Z,98345.49
2018-03-14T21:23:29.498Z,98348.09
2018-03-14T21:25:57.062Z,98349.66
2018-03-14T21:28:24.885Z,98353.69
2018-03-14T21:30:52.704Z,98353.63
2018-03-14T21:33:20.307Z,98354.17
2018-03-14T21:35:47.948Z,98351.30
2018-03-14T21:38:15.659Z,98352.13
2018-03-14T21:40:43.226Z,98356.20
2018-03-14T21:43:10.875Z,98346.25
2018-03-14T21:45:38.442Z,98352.03
2018-03-14T21:48:06.204Z,98357.34
2018-03-14T21:50:33.761Z,98358.45
2018-03-14T21:53:01.401Z,98362.87
2018-03-14T21:55:38.887Z,98368.24
2018-03-14T21:58:06.639Z,98365.57
2018-03-14T22:00:34.244Z,98363.72
2018-03-14T22:03:02.077Z,98359.95
2018-03-14T22:05:29.646Z,98357.80
2018-03-14T22:07:57.214Z,98354.14
2018-03-14T22:10:25.029Z,98355.55
2018-03-14T22:12:52.856Z,98349.11
2018-03-14T22:15:20.422Z,98348.84
2018-03-14T22:17:48.184Z,98338.66
2018-03-14T22:20:15.804Z,98336.95
2018-03-14T22:22:43.378Z,98328.84
2018-03-14T22:25:11.238Z,98338.77
2018-03-14T22:27:38.797Z,98333.65
2018-03-14T22:30:06.533Z,98345.77
2018-03-14T22:32:34.248Z,98338.38
2018-03-14T22:35:01.848Z,98332.39
2018-03-14T22:37:29.628Z,98344.67
2018-03-14T22:39:57.445Z,98341.90
2018-03-14T22:42:25.010Z,98340.02
2018-03-14T22:44:52.695Z,98335.27
2018-03-14T22:47:20.291Z,98337.66
2018-03-14T22:49:47.854Z,98345.30
2018-03-14T22:52:15.465Z,98341.01
2018-03-14T22:54:43.098Z,98344.48
2018-03-14T22:57:10.711Z,98353.23
2018-03-14T22:59:38.280Z,98351.75
2018-03-14T23:02:05.874Z,98345.89
2018-03-14T23:04:33.460Z,98349.77
2018-03-14T23:07:01.022Z,98353.85
2018-03-14T23:09:28.612Z,98349.56
2018-03-14T23:11:56.235Z,98350.45
2018-03-14T23:14:23.995Z,98353.73
2018-03-14T23:16:51.559Z,98352.58
2018-03-14T23:19:19.332Z,98359.39
2018-03-14T23:21:46.904Z,98352.73
2018-03-14T23:24:14.475Z,98350.75
2018-03-14T23:26:42.129Z,98353.95
2018-03-14T23:29:09.910Z,98351.44
2018-03-14T23:31:37.480Z,98353.81
2018-03-14T23:34:05.208Z,98357.17
2018-03-14T23:36:32.784Z,98353.81
2018-03-14T23:39:00.578Z,98356.36
2018-03-14T23:41:28.166Z,98361.72
2018-03-14T23:43:55.803Z,98357.83
2018-03-14T23:46:23.409Z,98360.31
2018-03-14T23:48:50.970Z,98357.58
2018-03-14T23:51:18.531Z,98356.01
2018-03-14T23:53:46.100Z,98356.06
2018-03-14T23:56:13.659Z,98355.44
2018-03-14T23:58:41.418Z,98354.28
